Latest Weather Observations for Telfer

IDW60801

Issued at 10:23 pm WST Saturday 23 January 2021 (issued every 10 minutes, with the page automatically refreshed every 10 minutes)

About weather observations | Map of weather stations | Latest weather observations for WA | Other Formats
Station Details ID: 013030 Name: TELFER AERO Lat: -21.71 Lon: 122.23 Height: 291.9 m
Data from the previous 72 hours. | See also: Recent months at Telfer
Date/Time
WST
Temp
°C
App
Temp
°C
Dew
Point
°C
Rel
Hum
%
Delta-T
°C
Wind Press
QNH
hPa
Press
MSL
hPa
Rain since
9am
mm
Dir  Spd
km/h
Gust
km/h
Spd
kts
Gust
kts
23/10:00pm 28.5 - - - - NNW 6 7 3 4 1004.4 1001.8 -
23/09:30pm 28.4 - - - - NNE 7 9 4 5 1004.2 1001.6 -
23/09:00pm 28.8 - - - - ENE 7 9 4 5 1004.0 1001.4 -
23/08:30pm 28.7 - - - - ESE 7 9 4 5 1003.6 1001.0 -
23/08:00pm 29.6 - - - - SE 9 11 5 6 1003.2 1000.6 -
23/07:30pm 30.2 - - - - SSE 9 11 5 6 1003.1 1000.5 -
23/07:00pm 32.0 - - - - CALM 0 0 0 0 1002.7 1000.1 -
23/06:30pm 33.1 - - - - SW 4 6 2 3 1002.5 999.9 -
23/06:00pm 33.9 - - - - WSW 9 13 5 7 1002.4 999.8 -
23/05:30pm 33.9 - - - - W 11 19 6 10 1002.1 999.6 -
23/05:00pm 33.7 - - - - W 17 28 9 15 1001.8 999.3 -
23/04:30pm 33.5 - - - - WSW 20 26 11 14 1001.6 999.1 -
23/04:00pm 32.8 - - - - SW 20 32 11 17 1001.5 999.0 -
23/03:30pm 32.6 - - - - SW 24 33 13 18 1001.4 998.9 -
23/03:00pm 32.2 - - - - WSW 22 32 12 17 1001.5 999.0 -
23/02:30pm 31.2 - - - - WSW 26 33 14 18 1001.7 999.2 -
23/02:00pm 30.8 - - - - SW 19 30 10 16 1002.0 999.5 -
23/01:30pm 30.0 - - - - SW 22 32 12 17 1002.4 999.8 -
23/01:00pm 29.3 - - - - WSW 24 35 13 19 1002.5 999.9 -
23/12:30pm 28.4 - - - - SW 26 35 14 19 1002.7 1000.1 -
23/12:00pm 27.7 - - - - SW 26 33 14 18 1002.7 1000.1 -
23/11:30am 27.2 - - - - SW 24 33 13 18 1003.1 1000.5 -
23/11:00am 27.1 - - - - WSW 28 37 15 20 1003.0 1000.4 -
23/10:30am 26.7 - - - - WSW 30 41 16 22 1003.1 1000.5 -
23/10:00am 25.9 - - - - SW 26 37 14 20 1003.2 1000.6 -
23/09:30am 25.0 - - - - SW 26 37 14 20 1003.2 1000.6 -
23/09:00am 23.8 - - - - WSW 28 37 15 20 1003.2 1000.6 -
23/08:54am 23.3 - - - - WSW 26 35 14 19 1003.2 1000.6 -
23/08:30am 23.4 - - - - WSW 24 32 13 17 1002.8 1000.2 -
23/08:00am 23.2 - - - - WSW 28 37 15 20 1002.1 999.6 -
23/07:30am 22.7 - - - - W 26 33 14 18 1001.9 999.4 -
23/07:00am 22.4 - - - - WSW 22 32 12 17 1001.6 999.1 -
23/06:30am 22.1 - - - - WSW 20 32 11 17 1001.3 998.8 -
23/06:00am 21.9 - - - - SW 24 33 13 18 1000.5 997.9 -
23/05:30am 21.7 - - - - SW 26 35 14 19 1000.1 997.5 -
23/05:00am 21.7 - - - - SW 15 22 8 12 999.6 997.0 -
23/04:33am 21.7 - - - - SSW 20 28 11 15 999.1 996.5 -
23/04:30am 21.7 - - - - SSW 20 26 11 14 999.0 996.4 -
23/04:19am 21.7 - - - - SSW 22 30 12 16 998.8 996.2 -
23/04:14am 21.8 - - - - SSW 20 28 11 15 998.8 996.2 -
23/04:00am 21.8 - - - - SSW 20 28 11 15 998.6 996.1 -
23/03:56am 21.7 - - - - SSW 20 28 11 15 998.6 996.1 -
23/03:42am 21.7 - - - - SSW 20 28 11 15 998.6 996.1 -
23/03:30am 21.8 - - - - S 20 30 11 16 998.6 996.1 -
23/03:18am 21.8 - - - - S 24 32 13 17 998.8 996.2 -
23/03:00am 21.8 - - - - S 26 33 14 18 998.9 996.3 -
23/02:50am 21.7 - - - - S 26 33 14 18 999.0 996.4 -
23/02:35am 21.9 - - - - S 24 32 13 17 999.2 996.6 -
23/02:30am 21.9 - - - - S 24 32 13 17 999.2 996.6 -
23/02:00am 21.9 - - - - S 19 26 10 14 999.3 996.7 -
23/01:40am 22.2 - - - - SSE 17 20 9 11 999.5 996.9 -
23/01:30am 22.1 - - - - SSE 17 20 9 11 999.5 996.9 -
23/01:20am 22.1 - - - - SSE 17 20 9 11 999.7 997.1 -
23/01:00am 22.0 - - - - SSE 19 24 10 13 999.8 997.2 -
23/12:37am 22.1 - - - - SE 17 20 9 11 1000.3 997.7 -
23/12:30am 22.1 - - - - SE 17 20 9 11 1000.3 997.7 -
23/12:02am 22.0 - - - - SE 17 20 9 11 1000.7 998.1 -
23/12:00am 22.1 - - - - SE 17 20 9 11 1000.7 998.1 -
 
Date/Time
WST
Temp
°C
App
Temp
°C
Dew
Point
°C
Rel
Hum
%
Delta-T
°C
Wind Press
QNH
hPa
Press
MSL
hPa
Rain since
9am
mm
Dir  Spd
km/h
Gust
km/h
Spd
kts
Gust
kts
22/11:30pm 21.9 - - - - SE 20 24 11 13 1001.2 998.6 -
22/11:00pm 21.9 - - - - SE 22 30 12 16 1001.7 999.2 -
22/10:30pm 21.8 - - - - SSE 22 30 12 16 1002.2 999.7 -
22/10:00pm 21.7 - - - - SE 24 32 13 17 1002.5 999.9 -
22/09:30pm 21.5 - - - - SE 35 43 19 23 1002.0 999.5 -
22/09:18pm 21.4 - - - - SE 30 37 16 20 1002.0 999.5 -
22/09:06pm 21.4 - - - - ESE 35 50 19 27 1002.1 999.6 -
22/09:00pm 21.5 - - - - SE 33 50 18 27 1002.1 999.6 -
22/08:58pm 21.5 - - - - SE 32 50 17 27 1002.1 999.6 -
22/08:55pm 21.5 - - - - SE 32 39 17 21 1002.2 999.7 -
22/08:47pm 21.4 - - - - SE 28 37 15 20 1002.2 999.7 -
22/08:34pm 21.3 - - - - SE 30 39 16 21 1002.2 999.7 -
22/08:30pm 21.3 - - - - SE 28 35 15 19 1002.4 999.8 -
22/08:20pm 21.3 - - - - SE 26 33 14 18 1002.7 1000.1 -
22/08:15pm 21.2 - - - - SSE 28 39 15 21 1002.6 1000.0 -
22/08:00pm 21.1 - - - - SE 33 41 18 22 1002.2 999.7 -
22/07:46pm 21.0 - - - - SE 35 44 19 24 1002.1 999.6 -
22/07:30pm 21.0 - - - - SE 35 48 19 26 1002.2 999.7 -
22/07:00pm 21.3 - - - - SE 39 50 21 27 1001.9 999.4 -
22/06:50pm 21.3 - - - - SE 39 50 21 27 1001.8 999.3 -
22/06:30pm 21.4 - - - - SE 43 52 23 28 1001.5 999.0 -
22/06:21pm 21.6 - - - - SE 43 57 23 31 1001.4 998.9 -
22/06:00pm 21.7 - - - - SE 41 54 22 29 1001.5 999.0 -
22/05:38pm 21.8 - - - - SE 44 56 24 30 1001.3 998.8 -
22/05:37pm 21.8 - - - - SE 44 56 24 30 1001.2 998.6 -
22/05:30pm 21.8 - - - - SE 44 61 24 33 1001.4 998.9 -
22/05:00pm 21.5 - - - - SE 43 54 23 29 1001.3 998.8 -
22/04:52pm 21.7 - - - - SE 41 59 22 32 1001.6 999.1 -
22/04:30pm 22.0 - - - - ESE 43 56 23 30 1001.5 999.0 -
22/04:09pm 22.1 - - - - ESE 41 52 22 28 1001.8 999.3 -
22/04:00pm 22.3 - - - - SE 43 54 23 29 1001.5 999.0 -
22/03:53pm 22.2 - - - - SE 39 52 21 28 1001.8 999.3 -
22/03:30pm 22.2 - - - - ESE 43 57 23 31 1001.7 999.2 -
22/03:23pm 22.2 - - - - ESE 41 52 22 28 1001.9 999.4 -
22/03:00pm 22.1 - - - - ESE 39 50 21 27 1002.4 999.8 -
22/02:30pm 22.1 - - - - SE 41 52 22 28 1002.9 1000.3 -
22/02:00pm 22.1 - - - - ESE 37 52 20 28 1003.6 1001.0 -
22/01:32pm 22.4 - - - - ESE 32 44 17 24 1004.1 1001.5 -
22/01:30pm 22.4 - - - - ESE 30 44 16 24 1004.1 1001.5 -
22/01:19pm 22.4 - - - - SE 30 43 16 23 1004.3 1001.7 -
22/01:18pm 22.3 - - - - SE 32 43 17 23 1004.4 1001.8 -
22/01:00pm 21.9 - - - - ESE 32 39 17 21 1004.8 1002.3 -
22/12:34pm 22.2 - - - - E 32 43 17 23 1005.3 1002.8 -
22/12:32pm 22.2 - - - - E 33 43 18 23 1005.5 1003.0 -
22/12:30pm 22.3 - - - - E 35 48 19 26 1005.6 1003.1 -
22/12:14pm 22.7 - - - - E 33 44 18 24 1005.6 1003.1 -
22/12:00pm 22.9 - - - - ESE 30 39 16 21 1005.7 1003.2 -
22/11:54am 22.9 - - - - ESE 26 37 14 20 1006.0 1003.4 -
22/11:51am 22.9 - - - - ESE 22 37 12 20 1006.1 1003.5 -
22/11:42am 22.7 - - - - ESE 22 30 12 16 1006.4 1003.8 -
22/11:30am 22.8 - - - - E 24 32 13 17 1006.7 1004.1 -
22/11:28am 22.8 - - - - E 24 35 13 19 1006.8 1004.2 -
22/11:08am 22.9 - - - - E 20 28 11 15 1007.3 1004.7 -
22/11:00am 22.9 - - - - E 20 28 11 15 1007.7 1005.2 -
22/10:48am 22.8 - - - - E 22 28 12 15 1007.6 1005.1 -
22/10:30am 22.8 - - - - E 20 24 11 13 1007.7 1005.2 -
22/10:00am 22.6 - - - - ENE 19 28 10 15 1008.3 1005.8 -
22/09:45am 22.3 - - - - E 15 20 8 11 1008.4 1005.9 -
22/09:33am 21.9 - - - - ENE 19 30 10 16 1008.6 1006.1 -
22/09:30am 22.0 - - - - ENE 22 30 12 16 1008.7 1006.2 -
22/09:23am 22.4 - - - - NE 22 30 12 16 1008.7 1006.2 -
22/09:20am 22.6 - - - - NE 20 30 11 16 1008.7 1006.2 -
22/09:19am 22.6 - - - - NE 20 30 11 16 1008.7 1006.2 -
22/09:18am 22.6 - - - - NE 20 30 11 16 1008.7 1006.2 -
22/09:05am 22.9 - - - - NE 20 37 11 20 1008.8 1006.3 -
22/09:00am 22.9 - - - - NE 17 28 9 15 1008.8 1006.3 -
22/08:49am 22.9 - - - - NNE 15 20 8 11 1008.5 1006.0 -
22/08:45am 23.0 - - - - NE 17 20 9 11 1008.4 1005.9 -
22/08:30am 22.8 - - - - ENE 15 20 8 11 1008.4 1005.9 -
22/08:19am 22.7 - - - - ENE 15 20 8 11 1008.4 1005.9 -
22/08:00am 22.7 - - - - NE 17 28 9 15 1008.2 1005.7 -
22/07:30am 23.1 - - - - NE 17 24 9 13 1008.2 1005.7 -
22/07:00am 23.5 - - - - NE 17 22 9 12 1007.7 1005.2 -
22/06:30am 23.7 - - - - ENE 13 17 7 9 1007.4 1004.8 -
22/06:00am 23.9 - - - - NE 13 20 7 11 1007.4 1004.8 -
22/05:30am 24.0 - - - - NE 15 24 8 13 1007.9 1005.4 -
22/05:00am 24.5 - - - - NE 17 26 9 14 1007.6 1005.1 -
22/04:30am 24.6 - - - - NE 13 17 7 9 1007.7 1005.2 -
22/04:00am 24.6 - - - - NE 9 11 5 6 1007.5 1004.9 -
22/03:30am 24.4 - - - - E 9 13 5 7 1007.2 1004.6 -
22/03:00am 24.3 - - - - ENE 7 11 4 6 1006.7 1004.1 -
22/02:30am 24.2 - - - - NNE 9 17 5 9 1007.1 1004.5 -
22/02:00am 24.2 - - - - NNE 11 15 6 8 1007.2 1004.6 -
22/01:30am 24.2 - - - - ESE 7 9 4 5 1006.8 1004.2 -
22/01:00am 24.0 - - - - NE 9 13 5 7 1007.3 1004.7 -
22/12:30am 23.9 - - - - NNE 15 19 8 10 1007.8 1005.3 -
22/12:00am 24.1 - - - - NNE 24 32 13 17 1008.3 1005.8 -
 
Date/Time
WST
Temp
°C
App
Temp
°C
Dew
Point
°C
Rel
Hum
%
Delta-T
°C
Wind Press
QNH
hPa
Press
MSL
hPa
Rain since
9am
mm
Dir  Spd
km/h
Gust
km/h
Spd
kts
Gust
kts
21/11:30pm 24.5 - - - - NNE 20 30 11 16 1009.0 1006.5 -
21/11:00pm 26.0 - - - - NNE 13 17 7 9 1008.9 1006.4 -
21/10:30pm 25.9 - - - - NNE 17 24 9 13 1009.1 1006.6 -
21/10:00pm 26.0 - - - - NNE 19 26 10 14 1009.4 1006.9 -
21/09:30pm 26.8 - - - - N 20 30 11 16 1009.2 1006.7 -
21/09:00pm 27.7 - - - - N 24 33 13 18 1008.8 1006.3 -
21/08:34pm 28.2 - - - - NNE 32 50 17 27 1008.4 1005.9 -
21/08:30pm 28.3 - - - - NNE 35 50 19 27 1008.4 1005.9 -
21/08:21pm 29.8 - - - - NNE 28 46 15 25 1008.3 1005.8 -
21/08:00pm 32.0 - - - - NNE 24 35 13 19 1008.0 1005.5 -
21/07:30pm 32.6 - - - - NNE 22 33 12 18 1007.7 1005.2 -
21/07:00pm 33.1 - - - - NE 20 28 11 15 1007.3 1004.7 -
21/06:30pm 33.3 - - - - NE 19 28 10 15 1006.7 1004.1 -
21/06:00pm 33.5 - - - - NNE 19 28 10 15 1006.0 1003.4 -
21/05:30pm 33.9 - - - - NNE 20 26 11 14 1005.6 1003.1 -
21/05:00pm 34.8 - - - - NE 19 26 10 14 1005.6 1003.1 -
21/04:30pm 35.6 - - - - NE 15 22 8 12 1005.5 1003.0 -
21/04:00pm 35.6 - - - - NE 19 24 10 13 1005.7 1003.2 -
21/03:30pm 35.9 - - - - ENE 15 22 8 12 1006.0 1003.4 -
21/03:00pm 35.6 - - - - ENE 15 24 8 13 1006.4 1003.8 -
21/02:30pm 35.5 - - - - ENE 13 20 7 11 1006.6 1004.0 -
21/02:00pm 35.5 - - - - ENE 15 22 8 12 1007.0 1004.4 -
21/01:30pm 34.8 - - - - NE 13 20 7 11 1007.4 1004.8 -
21/01:00pm 34.8 - - - - NE 15 22 8 12 1007.5 1004.9 -
21/12:30pm 34.6 - - - - ENE 7 15 4 8 1007.7 1005.2 -
21/12:00pm 35.0 - - - - NE 17 24 9 13 1008.1 1005.6 -
21/11:30am 34.8 - - - - N 15 20 8 11 1008.4 1005.9 -
21/11:00am 34.5 - - - - N 17 26 9 14 1009.0 1006.5 -
21/10:30am 34.4 - - - - N 15 24 8 13 1009.4 1006.9 -
21/10:00am 33.7 - - - - N 15 22 8 12 1010.0 1007.4 -
21/09:30am 33.6 - - - - NNW 17 24 9 13 1010.0 1007.4 -
21/09:00am 33.4 - - - - N 17 24 9 13 1009.9 1007.3 -
21/08:30am 33.0 - - - - NNW 13 20 7 11 1009.9 1007.3 -
21/08:00am 31.7 - - - - NNW 15 22 8 12 1009.9 1007.3 -
21/07:30am 30.9 - - - - NW 17 22 9 12 1009.8 1007.2 -
21/07:00am 30.7 - - - - NW 15 20 8 11 1009.6 1007.0 -
21/06:30am 30.3 - - - - NW 13 17 7 9 1009.7 1007.1 -
21/06:00am 30.0 - - - - NNW 11 15 6 8 1009.7 1007.1 -
21/05:30am 29.9 - - - - NNW 11 15 6 8 1009.3 1006.8 -
21/05:00am 30.0 - - - - NW 11 17 6 9 1008.8 1006.3 -
21/04:30am 30.1 - - - - NW 13 19 7 10 1008.4 1005.9 -
21/04:00am 30.3 - - - - NW 17 24 9 13 1008.2 1005.7 -
21/03:30am 30.6 - - - - NW 19 26 10 14 1008.0 1005.5 -
21/03:00am 30.9 - - - - NW 19 26 10 14 1008.0 1005.5 -
21/02:30am 31.1 - - - - NW 17 28 9 15 1008.0 1005.5 -
21/02:00am 31.1 - - - - NNW 11 17 6 9 1007.7 1005.2 -
21/01:30am 31.6 - - - - NW 13 17 7 9 1007.6 1005.1 -
21/01:00am 32.4 - - - - W 17 22 9 12 1007.2 1004.6 -
21/12:30am 32.7 - - - - WNW 15 22 8 12 1007.4 1004.8 -
21/12:00am 33.2 - - - - NNW 11 17 6 9 1007.5 1004.9 -
 
Date/Time
WST
Temp
°C
App
Temp
°C
Dew
Point
°C
Rel
Hum
%
Delta-T
°C
Wind Press
QNH
hPa
Press
MSL
hPa
Rain since
9am
mm
Dir  Spd
km/h
Gust
km/h
Spd
kts
Gust
kts
20/11:30pm 33.7 - - - - N 9 19 5 10 1007.7 1005.2 -
20/11:00pm 33.3 - - - - CALM 0 0 0 0 1007.8 1005.3 -
20/10:30pm 33.5 - - - - CALM 0 0 0 0 1008.1 1005.6 -

Other formats

Comma delimited format used in spreadsheet applications
http://www.bom.gov.au/fwo/IDW60801/IDW60801.94319.axf

JavaScript Object Notation format (JSON) in row-major order
http://www.bom.gov.au/fwo/IDW60801/IDW60801.94319.json

Data quality

Most of these data are generated automatically and are frequently updated. Quality checks on data are not normally performed. It is possible for incorrect values to appear. Refer to information at About Latest Weather Observations and please check the disclaimer before using these data.